sensor_id;sensor_type;location;lat;lon;timestamp;P1;durP1;ratioP1;P2;durP2;ratioP2
18104;SDS011;9179;50.968;3.134;2023-06-22T00:01:15;9.82;;;7.10;;
18104;SDS011;9179;50.968;3.134;2023-06-22T00:03:42;10.07;;;7.57;;
18104;SDS011;9179;50.968;3.134;2023-06-22T00:06:09;9.25;;;7.60;;
18104;SDS011;9179;50.968;3.134;2023-06-22T00:08:36;8.27;;;7.05;;
18104;SDS011;9179;50.968;3.134;2023-06-22T00:11:04;8.57;;;7.60;;
18104;SDS011;9179;50.968;3.134;2023-06-22T00:13:31;11.07;;;7.35;;
18104;SDS011;9179;50.968;3.134;2023-06-22T00:15:58;10.00;;;6.88;;
18104;SDS011;9179;50.968;3.134;2023-06-22T00:18:25;9.57;;;7.35;;
18104;SDS011;9179;50.968;3.134;2023-06-22T00:20:53;10.30;;;8.23;;
18104;SDS011;9179;50.968;3.134;2023-06-22T00:23:23;9.23;;;8.00;;
18104;SDS011;9179;50.968;3.134;2023-06-22T00:25:50;10.52;;;7.88;;
18104;SDS011;9179;50.968;3.134;2023-06-22T00:28:19;9.00;;;7.70;;
18104;SDS011;9179;50.968;3.134;2023-06-22T00:30:46;10.25;;;7.57;;
18104;SDS011;9179;50.968;3.134;2023-06-22T00:33:14;9.73;;;8.73;;
18104;SDS011;9179;50.968;3.134;2023-06-22T00:35:41;10.18;;;7.80;;
18104;SDS011;9179;50.968;3.134;2023-06-22T00:38:08;8.10;;;7.28;;
18104;SDS011;9179;50.968;3.134;2023-06-22T00:40:35;8.63;;;6.90;;
18104;SDS011;9179;50.968;3.134;2023-06-22T00:43:02;7.90;;;6.75;;
18104;SDS011;9179;50.968;3.134;2023-06-22T00:45:31;10.63;;;7.38;;
18104;SDS011;9179;50.968;3.134;2023-06-22T00:47:58;9.93;;;7.70;;
18104;SDS011;9179;50.968;3.134;2023-06-22T00:50:26;7.70;;;6.90;;
18104;SDS011;9179;50.968;3.134;2023-06-22T00:52:58;6.88;;;6.15;;
18104;SDS011;9179;50.968;3.134;2023-06-22T00:55:27;10.73;;;7.15;;
18104;SDS011;9179;50.968;3.134;2023-06-22T00:57:55;8.55;;;6.57;;
18104;SDS011;9179;50.968;3.134;2023-06-22T01:00:23;9.38;;;6.70;;
18104;SDS011;9179;50.968;3.134;2023-06-22T01:02:52;8.77;;;7.15;;
18104;SDS011;9179;50.968;3.134;2023-06-22T01:05:20;8.60;;;6.90;;
18104;SDS011;9179;50.968;3.134;2023-06-22T01:07:52;8.98;;;7.88;;
18104;SDS011;9179;50.968;3.134;2023-06-22T01:10:39;8.15;;;7.32;;
18104;SDS011;9179;50.968;3.134;2023-06-22T01:13:13;8.60;;;7.78;;
18104;SDS011;9179;50.968;3.134;2023-06-22T01:15:49;8.00;;;7.20;;
18104;SDS011;9179;50.968;3.134;2023-06-22T01:18:23;8.65;;;7.78;;
18104;SDS011;9179;50.968;3.134;2023-06-22T01:20:52;7.13;;;6.47;;
18104;SDS011;9179;50.968;3.134;2023-06-22T01:23:26;7.68;;;6.88;;
18104;SDS011;9179;50.968;3.134;2023-06-22T01:25:57;8.88;;;7.60;;
18104;SDS011;9179;50.968;3.134;2023-06-22T01:28:37;7.40;;;6.45;;
18104;SDS011;9179;50.968;3.134;2023-06-22T01:31:09;7.32;;;6.63;;
18104;SDS011;9179;50.968;3.134;2023-06-22T01:33:40;7.55;;;6.88;;
18104;SDS011;9179;50.968;3.134;2023-06-22T01:36:09;8.02;;;7.32;;
18104;SDS011;9179;50.968;3.134;2023-06-22T01:38:37;7.50;;;6.78;;
18104;SDS011;9179;50.968;3.134;2023-06-22T01:41:05;10.32;;;7.07;;
18104;SDS011;9179;50.968;3.134;2023-06-22T01:43:32;7.50;;;6.60;;
18104;SDS011;9179;50.968;3.134;2023-06-22T01:46:01;8.75;;;7.20;;
18104;SDS011;9179;50.968;3.134;2023-06-22T01:48:29;9.50;;;7.07;;
18104;SDS011;9179;50.968;3.134;2023-06-22T01:50:57;8.93;;;6.65;;
18104;SDS011;9179;50.968;3.134;2023-06-22T01:53:24;8.20;;;7.40;;
18104;SDS011;9179;50.968;3.134;2023-06-22T01:55:51;9.30;;;8.13;;
18104;SDS011;9179;50.968;3.134;2023-06-22T01:58:18;7.40;;;6.70;;
18104;SDS011;9179;50.968;3.134;2023-06-22T02:00:48;8.75;;;7.63;;
18104;SDS011;9179;50.968;3.134;2023-06-22T02:03:21;9.13;;;7.70;;
18104;SDS011;9179;50.968;3.134;2023-06-22T02:05:54;10.13;;;9.00;;
18104;SDS011;9179;50.968;3.134;2023-06-22T02:08:25;10.43;;;8.40;;
18104;SDS011;9179;50.968;3.134;2023-06-22T02:10:56;9.90;;;8.13;;
18104;SDS011;9179;50.968;3.134;2023-06-22T02:13:25;8.73;;;7.82;;
18104;SDS011;9179;50.968;3.134;2023-06-22T02:15:53;8.70;;;7.70;;
18104;SDS011;9179;50.968;3.134;2023-06-22T02:18:22;8.68;;;7.75;;
18104;SDS011;9179;50.968;3.134;2023-06-22T02:20:50;8.88;;;7.97;;
18104;SDS011;9179;50.968;3.134;2023-06-22T02:23:17;10.55;;;8.68;;
18104;SDS011;9179;50.968;3.134;2023-06-22T02:25:44;14.25;;;8.45;;
18104;SDS011;9179;50.968;3.134;2023-06-22T02:28:11;8.60;;;7.68;;
18104;SDS011;9179;50.968;3.134;2023-06-22T02:30:38;8.20;;;7.32;;
18104;SDS011;9179;50.968;3.134;2023-06-22T02:33:05;9.45;;;7.88;;
18104;SDS011;9179;50.968;3.134;2023-06-22T02:35:33;12.07;;;8.75;;
18104;SDS011;9179;50.968;3.134;2023-06-22T02:38:02;10.25;;;8.88;;
18104;SDS011;9179;50.968;3.134;2023-06-22T02:40:29;9.68;;;8.75;;
18104;SDS011;9179;50.968;3.134;2023-06-22T02:42:57;10.05;;;8.55;;
18104;SDS011;9179;50.968;3.134;2023-06-22T02:45:27;11.02;;;9.93;;
18104;SDS011;9179;50.968;3.134;2023-06-22T02:47:54;10.75;;;8.30;;
18104;SDS011;9179;50.968;3.134;2023-06-22T02:50:21;10.02;;;9.07;;
18104;SDS011;9179;50.968;3.134;2023-06-22T02:52:49;10.95;;;8.90;;
18104;SDS011;9179;50.968;3.134;2023-06-22T02:55:16;14.00;;;9.40;;
18104;SDS011;9179;50.968;3.134;2023-06-22T02:57:43;10.32;;;8.98;;
18104;SDS011;9179;50.968;3.134;2023-06-22T03:00:12;10.65;;;9.02;;
18104;SDS011;9179;50.968;3.134;2023-06-22T03:02:42;14.07;;;10.07;;
18104;SDS011;9179;50.968;3.134;2023-06-22T03:05:10;11.15;;;9.90;;
18104;SDS011;9179;50.968;3.134;2023-06-22T03:07:39;12.45;;;10.13;;
18104;SDS011;9179;50.968;3.134;2023-06-22T03:10:08;11.63;;;9.13;;
18104;SDS011;9179;50.968;3.134;2023-06-22T03:12:36;11.40;;;10.18;;
18104;SDS011;9179;50.968;3.134;2023-06-22T03:15:04;11.23;;;10.00;;
18104;SDS011;9179;50.968;3.134;2023-06-22T03:17:32;12.25;;;9.80;;
18104;SDS011;9179;50.968;3.134;2023-06-22T03:20:00;11.52;;;10.32;;
18104;SDS011;9179;50.968;3.134;2023-06-22T03:22:31;12.48;;;10.07;;
18104;SDS011;9179;50.968;3.134;2023-06-22T03:24:58;11.73;;;10.45;;
18104;SDS011;9179;50.968;3.134;2023-06-22T03:27:26;12.32;;;9.43;;
18104;SDS011;9179;50.968;3.134;2023-06-22T03:29:53;10.60;;;8.95;;
18104;SDS011;9179;50.968;3.134;2023-06-22T03:32:20;12.73;;;10.00;;
18104;SDS011;9179;50.968;3.134;2023-06-22T03:34:47;10.95;;;9.27;;
18104;SDS011;9179;50.968;3.134;2023-06-22T03:37:14;10.23;;;8.43;;
18104;SDS011;9179;50.968;3.134;2023-06-22T03:39:41;12.55;;;9.60;;
18104;SDS011;9179;50.968;3.134;2023-06-22T03:42:08;13.07;;;9.57;;
18104;SDS011;9179;50.968;3.134;2023-06-22T03:44:36;13.10;;;8.52;;
18104;SDS011;9179;50.968;3.134;2023-06-22T03:47:04;12.93;;;9.15;;
18104;SDS011;9179;50.968;3.134;2023-06-22T03:49:32;14.35;;;9.27;;
18104;SDS011;9179;50.968;3.134;2023-06-22T03:51:59;12.30;;;9.63;;
18104;SDS011;9179;50.968;3.134;2023-06-22T03:54:27;10.13;;;8.43;;
18104;SDS011;9179;50.968;3.134;2023-06-22T03:56:54;10.13;;;8.60;;
18104;SDS011;9179;50.968;3.134;2023-06-22T03:59:23;11.40;;;7.80;;
18104;SDS011;9179;50.968;3.134;2023-06-22T04:01:52;8.43;;;7.63;;
18104;SDS011;9179;50.968;3.134;2023-06-22T04:04:18;8.27;;;7.47;;
18104;SDS011;9179;50.968;3.134;2023-06-22T04:06:45;10.85;;;8.20;;
18104;SDS011;9179;50.968;3.134;2023-06-22T04:09:12;9.85;;;8.30;;
18104;SDS011;9179;50.968;3.134;2023-06-22T04:11:39;9.68;;;7.72;;
18104;SDS011;9179;50.968;3.134;2023-06-22T04:14:06;8.63;;;7.72;;
18104;SDS011;9179;50.968;3.134;2023-06-22T04:16:33;9.20;;;7.35;;
18104;SDS011;9179;50.968;3.134;2023-06-22T04:19:01;11.52;;;7.75;;
18104;SDS011;9179;50.968;3.134;2023-06-22T04:21:28;9.32;;;8.15;;
18104;SDS011;9179;50.968;3.134;2023-06-22T04:23:55;9.13;;;7.90;;
18104;SDS011;9179;50.968;3.134;2023-06-22T04:26:22;8.90;;;7.80;;
18104;SDS011;9179;50.968;3.134;2023-06-22T04:28:49;8.93;;;8.02;;
18104;SDS011;9179;50.968;3.134;2023-06-22T04:31:20;9.02;;;7.90;;
18104;SDS011;9179;50.968;3.134;2023-06-22T04:33:56;8.50;;;7.57;;
18104;SDS011;9179;50.968;3.134;2023-06-22T04:36:31;9.68;;;8.73;;
18104;SDS011;9179;50.968;3.134;2023-06-22T04:39:06;8.25;;;6.95;;
18104;SDS011;9179;50.968;3.134;2023-06-22T04:41:34;7.05;;;6.30;;
18104;SDS011;9179;50.968;3.134;2023-06-22T04:44:07;8.10;;;7.05;;
18104;SDS011;9179;50.968;3.134;2023-06-22T04:46:37;7.97;;;7.18;;
18104;SDS011;9179;50.968;3.134;2023-06-22T04:49:05;8.20;;;6.47;;
18104;SDS011;9179;50.968;3.134;2023-06-22T04:51:37;6.78;;;6.07;;
18104;SDS011;9179;50.968;3.134;2023-06-22T04:54:05;8.02;;;6.35;;
18104;SDS011;9179;50.968;3.134;2023-06-22T04:56:32;6.43;;;5.82;;
18104;SDS011;9179;50.968;3.134;2023-06-22T04:59:00;6.63;;;6.00;;
18104;SDS011;9179;50.968;3.134;2023-06-22T05:01:28;7.18;;;6.43;;
18104;SDS011;9179;50.968;3.134;2023-06-22T05:03:56;6.40;;;5.78;;
18104;SDS011;9179;50.968;3.134;2023-06-22T05:06:26;6.45;;;5.57;;
18104;SDS011;9179;50.968;3.134;2023-06-22T05:08:55;5.75;;;5.25;;
18104;SDS011;9179;50.968;3.134;2023-06-22T05:11:23;7.50;;;6.80;;
18104;SDS011;9179;50.968;3.134;2023-06-22T05:13:51;6.88;;;6.15;;
18104;SDS011;9179;50.968;3.134;2023-06-22T05:16:18;6.25;;;5.55;;
18104;SDS011;9179;50.968;3.134;2023-06-22T05:18:48;6.43;;;5.78;;
18104;SDS011;9179;50.968;3.134;2023-06-22T05:21:16;7.03;;;6.32;;
18104;SDS011;9179;50.968;3.134;2023-06-22T05:23:44;5.93;;;5.32;;
18104;SDS011;9179;50.968;3.134;2023-06-22T05:26:12;6.30;;;5.70;;
18104;SDS011;9179;50.968;3.134;2023-06-22T05:28:39;7.00;;;5.40;;
18104;SDS011;9179;50.968;3.134;2023-06-22T05:31:06;8.40;;;5.80;;
18104;SDS011;9179;50.968;3.134;2023-06-22T05:33:33;6.15;;;5.55;;
18104;SDS011;9179;50.968;3.134;2023-06-22T05:36:00;6.75;;;5.90;;
18104;SDS011;9179;50.968;3.134;2023-06-22T05:38:27;6.30;;;5.70;;
18104;SDS011;9179;50.968;3.134;2023-06-22T05:40:54;6.28;;;5.68;;
18104;SDS011;9179;50.968;3.134;2023-06-22T05:43:22;6.00;;;5.45;;
18104;SDS011;9179;50.968;3.134;2023-06-22T05:45:49;6.13;;;5.47;;
18104;SDS011;9179;50.968;3.134;2023-06-22T05:48:16;9.48;;;5.82;;
18104;SDS011;9179;50.968;3.134;2023-06-22T05:50:43;6.25;;;4.93;;
18104;SDS011;9179;50.968;3.134;2023-06-22T05:53:10;6.72;;;6.13;;
18104;SDS011;9179;50.968;3.134;2023-06-22T05:55:37;5.07;;;4.57;;
18104;SDS011;9179;50.968;3.134;2023-06-22T05:58:04;5.80;;;5.30;;
18104;SDS011;9179;50.968;3.134;2023-06-22T06:00:32;6.00;;;5.03;;
18104;SDS011;9179;50.968;3.134;2023-06-22T06:02:59;5.82;;;5.25;;
18104;SDS011;9179;50.968;3.134;2023-06-22T06:05:28;5.07;;;4.60;;
18104;SDS011;9179;50.968;3.134;2023-06-22T06:07:55;6.47;;;5.43;;
18104;SDS011;9179;50.968;3.134;2023-06-22T06:10:22;6.55;;;5.75;;
18104;SDS011;9179;50.968;3.134;2023-06-22T06:12:49;6.70;;;5.88;;
18104;SDS011;9179;50.968;3.134;2023-06-22T06:15:16;6.55;;;5.95;;
18104;SDS011;9179;50.968;3.134;2023-06-22T06:17:47;6.45;;;5.85;;
18104;SDS011;9179;50.968;3.134;2023-06-22T06:20:15;5.70;;;4.90;;
18104;SDS011;9179;50.968;3.134;2023-06-22T06:22:44;9.27;;;5.82;;
18104;SDS011;9179;50.968;3.134;2023-06-22T06:25:11;7.03;;;6.22;;
18104;SDS011;9179;50.968;3.134;2023-06-22T06:27:41;7.15;;;6.15;;
18104;SDS011;9179;50.968;3.134;2023-06-22T06:30:08;6.93;;;5.93;;
18104;SDS011;9179;50.968;3.134;2023-06-22T06:32:36;6.63;;;5.90;;
18104;SDS011;9179;50.968;3.134;2023-06-22T06:35:07;6.35;;;5.75;;
18104;SDS011;9179;50.968;3.134;2023-06-22T06:37:36;7.05;;;6.35;;
18104;SDS011;9179;50.968;3.134;2023-06-22T06:40:04;6.75;;;6.07;;
18104;SDS011;9179;50.968;3.134;2023-06-22T06:42:33;6.45;;;5.90;;
18104;SDS011;9179;50.968;3.134;2023-06-22T06:45:00;7.00;;;6.40;;
18104;SDS011;9179;50.968;3.134;2023-06-22T06:47:27;7.38;;;6.35;;
18104;SDS011;9179;50.968;3.134;2023-06-22T06:49:54;7.38;;;6.55;;
18104;SDS011;9179;50.968;3.134;2023-06-22T06:52:22;7.13;;;6.43;;
18104;SDS011;9179;50.968;3.134;2023-06-22T06:54:49;7.75;;;6.95;;
18104;SDS011;9179;50.968;3.134;2023-06-22T06:57:17;6.95;;;6.45;;
18104;SDS011;9179;50.968;3.134;2023-06-22T06:59:45;7.00;;;6.22;;
18104;SDS011;9179;50.968;3.134;2023-06-22T07:02:12;7.63;;;6.93;;
18104;SDS011;9179;50.968;3.134;2023-06-22T07:04:39;8.60;;;7.78;;
18104;SDS011;9179;50.968;3.134;2023-06-22T07:07:07;8.05;;;7.35;;
18104;SDS011;9179;50.968;3.134;2023-06-22T07:09:35;8.38;;;7.15;;
18104;SDS011;9179;50.968;3.134;2023-06-22T07:12:02;8.10;;;6.97;;
18104;SDS011;9179;50.968;3.134;2023-06-22T07:14:29;7.38;;;6.55;;
18104;SDS011;9179;50.968;3.134;2023-06-22T07:16:57;9.32;;;7.38;;
18104;SDS011;9179;50.968;3.134;2023-06-22T07:19:24;8.13;;;7.43;;
18104;SDS011;9179;50.968;3.134;2023-06-22T07:21:52;7.80;;;6.57;;
18104;SDS011;9179;50.968;3.134;2023-06-22T07:24:19;9.20;;;8.30;;
18104;SDS011;9179;50.968;3.134;2023-06-22T07:26:47;8.48;;;7.68;;
18104;SDS011;9179;50.968;3.134;2023-06-22T07:29:15;8.38;;;7.43;;
18104;SDS011;9179;50.968;3.134;2023-06-22T07:31:43;7.45;;;6.75;;
18104;SDS011;9179;50.968;3.134;2023-06-22T07:34:11;8.90;;;8.10;;
18104;SDS011;9179;50.968;3.134;2023-06-22T07:36:37;10.20;;;9.20;;
18104;SDS011;9179;50.968;3.134;2023-06-22T07:39:06;9.63;;;8.73;;
18104;SDS011;9179;50.968;3.134;2023-06-22T07:41:33;10.18;;;9.27;;
18104;SDS011;9179;50.968;3.134;2023-06-22T07:44:01;10.65;;;8.90;;
18104;SDS011;9179;50.968;3.134;2023-06-22T07:46:28;9.52;;;8.50;;
18104;SDS011;9179;50.968;3.134;2023-06-22T07:48:56;10.20;;;9.30;;
18104;SDS011;9179;50.968;3.134;2023-06-22T07:51:24;11.18;;;10.05;;
18104;SDS011;9179;50.968;3.134;2023-06-22T07:53:51;11.25;;;9.30;;
18104;SDS011;9179;50.968;3.134;2023-06-22T07:56:18;10.15;;;9.25;;
18104;SDS011;9179;50.968;3.134;2023-06-22T07:58:46;13.43;;;9.18;;
18104;SDS011;9179;50.968;3.134;2023-06-22T08:01:14;9.82;;;8.75;;
18104;SDS011;9179;50.968;3.134;2023-06-22T08:03:41;10.60;;;9.60;;
18104;SDS011;9179;50.968;3.134;2023-06-22T08:06:09;10.77;;;9.80;;
18104;SDS011;9179;50.968;3.134;2023-06-22T08:08:36;11.00;;;9.88;;
18104;SDS011;9179;50.968;3.134;2023-06-22T08:11:03;11.82;;;10.65;;
18104;SDS011;9179;50.968;3.134;2023-06-22T08:13:30;11.30;;;10.20;;
18104;SDS011;9179;50.968;3.134;2023-06-22T08:15:57;13.35;;;11.25;;
18104;SDS011;9179;50.968;3.134;2023-06-22T08:18:26;12.02;;;9.98;;
18104;SDS011;9179;50.968;3.134;2023-06-22T08:20:53;11.77;;;10.48;;
18104;SDS011;9179;50.968;3.134;2023-06-22T08:23:20;11.13;;;9.90;;
18104;SDS011;9179;50.968;3.134;2023-06-22T08:25:47;11.73;;;10.57;;
18104;SDS011;9179;50.968;3.134;2023-06-22T08:28:15;12.77;;;11.57;;
18104;SDS011;9179;50.968;3.134;2023-06-22T08:30:42;11.85;;;10.75;;
18104;SDS011;9179;50.968;3.134;2023-06-22T08:33:09;11.45;;;10.35;;
18104;SDS011;9179;50.968;3.134;2023-06-22T08:35:37;11.43;;;10.32;;
18104;SDS011;9179;50.968;3.134;2023-06-22T08:38:04;12.02;;;10.82;;
18104;SDS011;9179;50.968;3.134;2023-06-22T08:40:31;12.05;;;10.77;;
18104;SDS011;9179;50.968;3.134;2023-06-22T08:42:58;11.10;;;9.80;;
18104;SDS011;9179;50.968;3.134;2023-06-22T08:45:25;10.40;;;9.25;;
18104;SDS011;9179;50.968;3.134;2023-06-22T08:47:52;12.05;;;10.88;;
18104;SDS011;9179;50.968;3.134;2023-06-22T08:50:19;11.65;;;10.52;;
18104;SDS011;9179;50.968;3.134;2023-06-22T08:52:47;12.63;;;9.73;;
18104;SDS011;9179;50.968;3.134;2023-06-22T08:55:14;11.98;;;9.65;;
18104;SDS011;9179;50.968;3.134;2023-06-22T08:57:41;12.98;;;11.43;;
18104;SDS011;9179;50.968;3.134;2023-06-22T09:00:09;11.25;;;10.23;;
18104;SDS011;9179;50.968;3.134;2023-06-22T09:02:45;11.82;;;10.65;;
18104;SDS011;9179;50.968;3.134;2023-06-22T09:05:12;11.68;;;10.57;;
18104;SDS011;9179;50.968;3.134;2023-06-22T09:07:39;11.85;;;10.77;;
18104;SDS011;9179;50.968;3.134;2023-06-22T09:10:08;13.05;;;11.85;;
18104;SDS011;9179;50.968;3.134;2023-06-22T09:12:36;13.10;;;11.90;;
18104;SDS011;9179;50.968;3.134;2023-06-22T09:15:03;13.82;;;12.43;;
18104;SDS011;9179;50.968;3.134;2023-06-22T09:17:32;12.70;;;11.40;;
18104;SDS011;9179;50.968;3.134;2023-06-22T09:20:00;14.35;;;12.95;;
18104;SDS011;9179;50.968;3.134;2023-06-22T09:22:30;13.65;;;12.25;;
18104;SDS011;9179;50.968;3.134;2023-06-22T09:24:57;13.98;;;12.60;;
18104;SDS011;9179;50.968;3.134;2023-06-22T09:27:26;13.95;;;12.65;;
18104;SDS011;9179;50.968;3.134;2023-06-22T09:29:53;14.05;;;12.00;;
18104;SDS011;9179;50.968;3.134;2023-06-22T09:32:20;14.75;;;13.45;;
18104;SDS011;9179;50.968;3.134;2023-06-22T09:34:47;14.50;;;13.20;;
18104;SDS011;9179;50.968;3.134;2023-06-22T09:37:14;13.20;;;11.90;;
18104;SDS011;9179;50.968;3.134;2023-06-22T09:39:41;12.73;;;11.57;;
18104;SDS011;9179;50.968;3.134;2023-06-22T09:42:07;15.02;;;12.63;;
18104;SDS011;9179;50.968;3.134;2023-06-22T09:44:36;15.13;;;13.50;;
18104;SDS011;9179;50.968;3.134;2023-06-22T09:47:03;13.98;;;12.30;;
18104;SDS011;9179;50.968;3.134;2023-06-22T09:49:31;13.95;;;12.65;;
18104;SDS011;9179;50.968;3.134;2023-06-22T09:51:58;13.85;;;12.55;;
18104;SDS011;9179;50.968;3.134;2023-06-22T09:54:25;15.00;;;12.38;;
18104;SDS011;9179;50.968;3.134;2023-06-22T09:56:52;15.32;;;13.80;;
18104;SDS011;9179;50.968;3.134;2023-06-22T09:59:19;14.30;;;12.85;;
18104;SDS011;9179;50.968;3.134;2023-06-22T10:01:48;14.85;;;13.48;;
18104;SDS011;9179;50.968;3.134;2023-06-22T10:04:15;15.50;;;13.88;;
18104;SDS011;9179;50.968;3.134;2023-06-22T10:06:42;15.63;;;14.13;;
18104;SDS011;9179;50.968;3.134;2023-06-22T10:09:08;14.23;;;12.85;;
18104;SDS011;9179;50.968;3.134;2023-06-22T10:11:35;15.32;;;13.88;;
18104;SDS011;9179;50.968;3.134;2023-06-22T10:14:02;14.73;;;13.38;;
18104;SDS011;9179;50.968;3.134;2023-06-22T10:16:30;14.70;;;13.30;;
18104;SDS011;9179;50.968;3.134;2023-06-22T10:18:59;16.40;;;14.70;;
18104;SDS011;9179;50.968;3.134;2023-06-22T10:21:26;15.60;;;14.13;;
18104;SDS011;9179;50.968;3.134;2023-06-22T10:23:53;16.83;;;14.55;;
18104;SDS011;9179;50.968;3.134;2023-06-22T10:26:20;15.63;;;14.23;;
18104;SDS011;9179;50.968;3.134;2023-06-22T10:28:47;14.75;;;13.35;;
18104;SDS011;9179;50.968;3.134;2023-06-22T10:31:14;14.90;;;13.50;;
18104;SDS011;9179;50.968;3.134;2023-06-22T10:33:41;14.77;;;13.48;;
18104;SDS011;9179;50.968;3.134;2023-06-22T10:36:10;14.02;;;12.63;;
18104;SDS011;9179;50.968;3.134;2023-06-22T10:38:37;13.82;;;12.45;;
18104;SDS011;9179;50.968;3.134;2023-06-22T10:41:04;14.32;;;13.02;;
18104;SDS011;9179;50.968;3.134;2023-06-22T10:43:31;14.57;;;13.07;;
18104;SDS011;9179;50.968;3.134;2023-06-22T10:45:58;14.48;;;12.98;;
18104;SDS011;9179;50.968;3.134;2023-06-22T10:48:25;14.15;;;12.68;;
18104;SDS011;9179;50.968;3.134;2023-06-22T10:50:52;14.45;;;13.02;;
18104;SDS011;9179;50.968;3.134;2023-06-22T10:53:21;14.10;;;12.80;;
18104;SDS011;9179;50.968;3.134;2023-06-22T10:55:48;17.30;;;14.20;;
18104;SDS011;9179;50.968;3.134;2023-06-22T10:58:16;14.35;;;13.05;;
18104;SDS011;9179;50.968;3.134;2023-06-22T11:00:47;14.60;;;13.07;;
18104;SDS011;9179;50.968;3.134;2023-06-22T11:03:13;15.88;;;14.40;;
18104;SDS011;9179;50.968;3.134;2023-06-22T11:05:40;14.13;;;12.70;;
18104;SDS011;9179;50.968;3.134;2023-06-22T11:08:07;14.10;;;12.43;;
18104;SDS011;9179;50.968;3.134;2023-06-22T11:10:35;14.75;;;13.20;;
18104;SDS011;9179;50.968;3.134;2023-06-22T11:13:02;13.70;;;12.40;;
18104;SDS011;9179;50.968;3.134;2023-06-22T11:15:30;14.40;;;12.90;;
18104;SDS011;9179;50.968;3.134;2023-06-22T11:17:57;14.00;;;12.63;;
18104;SDS011;9179;50.968;3.134;2023-06-22T11:20:24;14.02;;;12.60;;
18104;SDS011;9179;50.968;3.134;2023-06-22T11:22:51;15.00;;;13.60;;
18104;SDS011;9179;50.968;3.134;2023-06-22T11:25:18;13.38;;;12.27;;
18104;SDS011;9179;50.968;3.134;2023-06-22T11:27:46;14.60;;;13.10;;
18104;SDS011;9179;50.968;3.134;2023-06-22T11:30:13;12.95;;;11.75;;
18104;SDS011;9179;50.968;3.134;2023-06-22T11:32:41;14.77;;;13.27;;
18104;SDS011;9179;50.968;3.134;2023-06-22T11:35:08;14.32;;;12.85;;
18104;SDS011;9179;50.968;3.134;2023-06-22T11:37:35;15.00;;;13.38;;
18104;SDS011;9179;50.968;3.134;2023-06-22T11:40:02;15.30;;;13.90;;
18104;SDS011;9179;50.968;3.134;2023-06-22T11:42:33;14.02;;;12.75;;
18104;SDS011;9179;50.968;3.134;2023-06-22T11:45:02;14.65;;;13.32;;
18104;SDS011;9179;50.968;3.134;2023-06-22T11:47:30;14.55;;;13.15;;
18104;SDS011;9179;50.968;3.134;2023-06-22T11:49:57;15.10;;;13.55;;
18104;SDS011;9179;50.968;3.134;2023-06-22T11:52:24;12.85;;;11.75;;
18104;SDS011;9179;50.968;3.134;2023-06-22T11:54:52;14.68;;;13.15;;
18104;SDS011;9179;50.968;3.134;2023-06-22T11:57:19;14.70;;;13.23;;
18104;SDS011;9179;50.968;3.134;2023-06-22T11:59:46;13.70;;;12.23;;
18104;SDS011;9179;50.968;3.134;2023-06-22T12:02:14;15.00;;;13.13;;
18104;SDS011;9179;50.968;3.134;2023-06-22T12:04:41;20.05;;;13.32;;
18104;SDS011;9179;50.968;3.134;2023-06-22T12:07:08;15.60;;;14.05;;
18104;SDS011;9179;50.968;3.134;2023-06-22T12:09:35;15.13;;;13.55;;
18104;SDS011;9179;50.968;3.134;2023-06-22T12:12:02;14.68;;;13.13;;
18104;SDS011;9179;50.968;3.134;2023-06-22T12:14:30;13.85;;;12.57;;
18104;SDS011;9179;50.968;3.134;2023-06-22T12:16:57;17.05;;;14.90;;
18104;SDS011;9179;50.968;3.134;2023-06-22T12:19:25;19.85;;;13.80;;
18104;SDS011;9179;50.968;3.134;2023-06-22T12:21:52;16.83;;;15.00;;
18104;SDS011;9179;50.968;3.134;2023-06-22T12:24:19;14.55;;;13.15;;
18104;SDS011;9179;50.968;3.134;2023-06-22T12:26:46;15.20;;;13.65;;
18104;SDS011;9179;50.968;3.134;2023-06-22T12:29:13;15.90;;;14.30;;
18104;SDS011;9179;50.968;3.134;2023-06-22T12:31:40;15.77;;;14.20;;
18104;SDS011;9179;50.968;3.134;2023-06-22T12:34:06;15.10;;;13.55;;
18104;SDS011;9179;50.968;3.134;2023-06-22T12:36:35;15.70;;;14.00;;
18104;SDS011;9179;50.968;3.134;2023-06-22T12:39:02;16.02;;;13.48;;
18104;SDS011;9179;50.968;3.134;2023-06-22T12:41:29;15.82;;;14.15;;
18104;SDS011;9179;50.968;3.134;2023-06-22T12:43:56;17.50;;;15.68;;
18104;SDS011;9179;50.968;3.134;2023-06-22T12:46:23;16.00;;;14.55;;
18104;SDS011;9179;50.968;3.134;2023-06-22T12:48:49;16.58;;;15.07;;
18104;SDS011;9179;50.968;3.134;2023-06-22T12:51:20;18.48;;;16.27;;
18104;SDS011;9179;50.968;3.134;2023-06-22T12:53:49;19.25;;;17.23;;
18104;SDS011;9179;50.968;3.134;2023-06-22T12:56:16;18.92;;;16.85;;
18104;SDS011;9179;50.968;3.134;2023-06-22T12:58:43;17.98;;;15.82;;
18104;SDS011;9179;50.968;3.134;2023-06-22T13:01:10;18.25;;;16.33;;
18104;SDS011;9179;50.968;3.134;2023-06-22T13:03:37;22.35;;;17.88;;
18104;SDS011;9179;50.968;3.134;2023-06-22T13:06:04;18.60;;;16.70;;
18104;SDS011;9179;50.968;3.134;2023-06-22T13:08:31;19.45;;;17.15;;
18104;SDS011;9179;50.968;3.134;2023-06-22T13:10:59;20.20;;;16.52;;
18104;SDS011;9179;50.968;3.134;2023-06-22T13:13:26;19.08;;;17.08;;
18104;SDS011;9179;50.968;3.134;2023-06-22T13:15:53;18.13;;;16.23;;
18104;SDS011;9179;50.968;3.134;2023-06-22T13:18:20;17.90;;;15.80;;
18104;SDS011;9179;50.968;3.134;2023-06-22T13:20:47;17.88;;;15.68;;
18104;SDS011;9179;50.968;3.134;2023-06-22T13:23:14;16.42;;;14.82;;
18104;SDS011;9179;50.968;3.134;2023-06-22T13:25:40;15.57;;;13.35;;
18104;SDS011;9179;50.968;3.134;2023-06-22T13:28:09;15.45;;;13.93;;
18104;SDS011;9179;50.968;3.134;2023-06-22T13:30:38;13.48;;;12.07;;
18104;SDS011;9179;50.968;3.134;2023-06-22T13:33:05;13.95;;;12.55;;
18104;SDS011;9179;50.968;3.134;2023-06-22T13:35:32;12.45;;;11.18;;
18104;SDS011;9179;50.968;3.134;2023-06-22T13:38:00;13.88;;;12.13;;
18104;SDS011;9179;50.968;3.134;2023-06-22T13:40:27;13.23;;;11.95;;
18104;SDS011;9179;50.968;3.134;2023-06-22T13:42:57;14.13;;;12.73;;
18104;SDS011;9179;50.968;3.134;2023-06-22T13:45:27;13.52;;;12.02;;
18104;SDS011;9179;50.968;3.134;2023-06-22T13:47:54;12.63;;;11.27;;
18104;SDS011;9179;50.968;3.134;2023-06-22T13:50:20;15.18;;;13.45;;
18104;SDS011;9179;50.968;3.134;2023-06-22T13:52:48;13.52;;;12.13;;
18104;SDS011;9179;50.968;3.134;2023-06-22T13:55:14;15.30;;;13.68;;
18104;SDS011;9179;50.968;3.134;2023-06-22T13:57:42;14.63;;;13.20;;
18104;SDS011;9179;50.968;3.134;2023-06-22T14:00:09;15.25;;;13.68;;
18104;SDS011;9179;50.968;3.134;2023-06-22T14:02:39;14.60;;;13.20;;
18104;SDS011;9179;50.968;3.134;2023-06-22T14:05:07;14.82;;;13.30;;
18104;SDS011;9179;50.968;3.134;2023-06-22T14:07:34;13.73;;;12.40;;
18104;SDS011;9179;50.968;3.134;2023-06-22T14:10:02;14.23;;;12.77;;
18104;SDS011;9179;50.968;3.134;2023-06-22T14:12:29;13.23;;;11.93;;
18104;SDS011;9179;50.968;3.134;2023-06-22T14:14:56;11.27;;;10.18;;
18104;SDS011;9179;50.968;3.134;2023-06-22T14:17:23;11.13;;;10.02;;
18104;SDS011;9179;50.968;3.134;2023-06-22T14:19:52;10.57;;;9.48;;
18104;SDS011;9179;50.968;3.134;2023-06-22T14:22:20;9.77;;;8.88;;
18104;SDS011;9179;50.968;3.134;2023-06-22T14:24:47;10.90;;;9.77;;
18104;SDS011;9179;50.968;3.134;2023-06-22T14:27:14;12.13;;;9.57;;
18104;SDS011;9179;50.968;3.134;2023-06-22T14:29:42;9.73;;;8.75;;
18104;SDS011;9179;50.968;3.134;2023-06-22T14:32:09;10.75;;;9.75;;
18104;SDS011;9179;50.968;3.134;2023-06-22T14:34:36;10.70;;;9.60;;
18104;SDS011;9179;50.968;3.134;2023-06-22T14:37:06;8.95;;;7.97;;
18104;SDS011;9179;50.968;3.134;2023-06-22T14:39:34;9.68;;;8.68;;
18104;SDS011;9179;50.968;3.134;2023-06-22T14:42:02;11.77;;;8.57;;
18104;SDS011;9179;50.968;3.134;2023-06-22T14:44:29;8.35;;;7.57;;
18104;SDS011;9179;50.968;3.134;2023-06-22T14:46:57;8.63;;;7.72;;
18104;SDS011;9179;50.968;3.134;2023-06-22T14:49:24;7.55;;;6.78;;
18104;SDS011;9179;50.968;3.134;2023-06-22T14:51:52;9.50;;;8.05;;